createdAt,value
2023-04-11T00:04:55.485Z,0.53
2023-04-11T00:10:17.793Z,0.63
2023-04-11T00:15:40.830Z,0.59
2023-04-11T00:21:04.221Z,0.59
2023-04-11T00:26:26.884Z,0.50
2023-04-11T00:31:49.916Z,0.55
2023-04-11T00:37:15.119Z,0.49
2023-04-11T00:42:37.373Z,0.40
2023-04-11T00:48:01.373Z,0.50
2023-04-11T00:53:25.191Z,0.39
2023-04-11T00:58:47.423Z,0.36
2023-04-11T01:04:10.123Z,0.27
2023-04-11T01:09:36.149Z,0.28
2023-04-11T01:14:59.282Z,0.19
2023-04-11T01:20:23.316Z,0.20
2023-04-11T01:25:45.950Z,0.21
2023-04-11T01:31:09.063Z,0.12
2023-04-11T01:36:40.680Z,0.15
2023-04-11T01:42:04.731Z,0.11
2023-04-11T01:47:28.663Z,-0.10
2023-04-11T01:52:52.087Z,-0.08
2023-04-11T01:58:18.694Z,-0.08
2023-04-11T02:03:42.592Z,-0.06
2023-04-11T02:09:05.524Z,-0.08
2023-04-11T02:14:39.864Z,-0.17
2023-04-11T02:20:03.147Z,-0.42
2023-04-11T02:25:25.832Z,-0.34
2023-04-11T02:30:48.549Z,-0.36
2023-04-11T02:36:13.463Z,-0.54
2023-04-11T02:41:39.231Z,-0.33
2023-04-11T02:47:01.861Z,-0.41
2023-04-11T02:52:27.053Z,-0.42
2023-04-11T02:57:50.051Z,-0.44
2023-04-11T03:03:15.599Z,-0.29
2023-04-11T03:08:40.558Z,-0.30
2023-04-11T03:14:03.418Z,-0.14
2023-04-11T03:19:26.032Z,-0.11
2023-04-11T03:24:50.356Z,-0.33
2023-04-11T03:30:16.685Z,-0.04
2023-04-11T03:35:42.507Z,-0.01
2023-04-11T03:41:04.737Z,0.33
2023-04-11T03:46:28.333Z,0.41
2023-04-11T03:51:51.527Z,0.59
2023-04-11T03:57:14.105Z,0.66
2023-04-11T04:02:36.877Z,0.72
2023-04-11T04:08:03.743Z,1.02
2023-04-11T04:13:37.331Z,1.58
2023-04-11T04:19:12.072Z,2.06
2023-04-11T04:24:40.073Z,2.32
2023-04-11T04:30:17.814Z,2.71
2023-04-11T04:36:00.491Z,3.17
2023-04-11T04:41:26.042Z,3.31
2023-04-11T04:46:56.970Z,3.76
2023-04-11T04:52:23.462Z,4.05
2023-04-11T04:57:45.764Z,5.07
2023-04-11T05:03:09.337Z,5.68
2023-04-11T05:08:32.054Z,5.94
2023-04-11T05:13:58.056Z,6.08
2023-04-11T05:19:21.928Z,6.32
2023-04-11T05:24:46.878Z,6.46
2023-04-11T05:30:09.794Z,6.55
2023-04-11T05:35:34.373Z,6.85
2023-04-11T06:42:10.435Z,9.43
2023-04-11T06:47:37.317Z,9.38
2023-04-11T06:53:00.402Z,9.30
2023-04-11T06:58:22.710Z,9.42
2023-04-11T07:03:47.927Z,9.40
2023-04-11T07:09:10.737Z,9.48
2023-04-11T07:14:33.408Z,9.48
2023-04-11T07:19:56.144Z,9.64
2023-04-11T07:25:23.191Z,9.58
2023-04-11T07:30:45.560Z,9.58
2023-04-11T07:36:08.510Z,9.64
2023-04-11T07:59:44.120Z,10.59
2023-04-11T08:05:51.297Z,11.81
2023-04-11T08:24:09.137Z,13.28
2023-04-11T08:29:46.854Z,13.51
2023-04-11T08:42:31.937Z,13.69
2023-04-11T08:47:53.737Z,13.72
2023-04-11T08:53:16.792Z,13.67
2023-04-11T08:58:40.027Z,13.69
2023-04-11T09:04:05.873Z,13.75
2023-04-11T09:09:35.192Z,13.67
2023-04-11T09:14:57.258Z,14.03
2023-04-11T09:20:20.759Z,14.21
2023-04-11T09:25:47.228Z,14.21
2023-04-11T09:31:10.841Z,13.86
2023-04-11T09:36:33.086Z,13.40
2023-04-11T09:49:04.925Z,13.29
2023-04-11T09:54:29.859Z,12.77
2023-04-11T09:59:56.339Z,12.44
2023-04-11T10:12:03.692Z,10.79
2023-04-11T10:18:11.771Z,10.36
2023-04-11T10:24:16.336Z,9.29
2023-04-11T10:29:52.049Z,9.20
2023-04-11T10:35:18.413Z,9.25
2023-04-11T10:41:15.776Z,9.27
2023-04-11T10:46:50.838Z,9.92
2023-04-11T10:52:24.475Z,10.22
2023-04-11T10:58:08.762Z,10.69
2023-04-11T11:03:34.978Z,10.92
2023-04-11T11:08:58.508Z,11.09
2023-04-11T11:14:30.932Z,10.98
2023-04-11T11:19:53.436Z,11.28
2023-04-11T11:25:15.752Z,11.58
2023-04-11T11:30:39.109Z,11.86
2023-04-11T11:36:05.367Z,12.03
2023-04-11T11:41:28.669Z,12.31
2023-04-11T11:47:04.337Z,12.27
2023-04-11T11:52:38.179Z,12.24
2023-04-11T11:58:06.394Z,12.32
2023-04-11T12:03:30.557Z,12.60
2023-04-11T12:08:54.576Z,12.60
2023-04-11T12:14:23.845Z,12.64
2023-04-11T12:19:47.842Z,12.46
2023-04-11T12:25:15.423Z,12.46
2023-04-11T12:30:42.854Z,12.40
2023-04-11T12:36:08.681Z,12.72
2023-04-11T12:41:36.237Z,12.70
2023-04-11T12:47:23.148Z,12.52
2023-04-11T12:52:51.235Z,12.34
2023-04-11T12:58:22.717Z,12.34
2023-04-11T13:03:52.267Z,12.31
2023-04-11T13:09:25.965Z,12.20
2023-04-11T13:15:01.048Z,12.07
2023-04-11T13:20:25.233Z,12.10
2023-04-11T13:26:59.644Z,12.11
2023-04-11T13:31:55.309Z,11.94
2023-04-11T13:37:43.720Z,11.52
2023-04-11T13:43:13.394Z,11.35
2023-04-11T13:48:36.493Z,11.22
2023-04-11T13:53:59.038Z,10.96
2023-04-11T14:05:47.908Z,11.47
2023-04-11T14:11:10.620Z,11.22
2023-04-11T14:16:33.314Z,11.11
2023-04-11T14:21:55.778Z,11.18
2023-04-11T14:27:18.319Z,10.99
2023-04-11T14:32:41.402Z,11.01
2023-04-11T14:38:04.075Z,10.96
2023-04-11T14:43:26.329Z,10.88
2023-04-11T14:48:49.063Z,10.78
2023-04-11T14:54:11.471Z,10.76
2023-04-11T14:59:34.012Z,10.76
2023-04-11T15:04:57.787Z,10.76
2023-04-11T15:10:22.193Z,10.70
2023-04-11T15:15:44.670Z,10.62
2023-04-11T15:21:07.470Z,10.56
2023-04-11T15:26:30.792Z,10.31
2023-04-11T15:31:53.354Z,10.35
2023-04-11T15:37:40.217Z,10.30
2023-04-11T15:43:02.785Z,10.06
2023-04-11T15:48:25.109Z,10.02
2023-04-11T15:53:48.927Z,9.98
2023-04-11T15:59:13.787Z,9.81
2023-04-11T16:04:38.927Z,9.73
2023-04-11T16:10:01.131Z,9.55
2023-04-11T16:15:23.818Z,9.49
2023-04-11T16:20:46.358Z,9.15
2023-04-11T16:26:08.313Z,8.85
2023-04-11T16:31:32.032Z,8.65
2023-04-11T16:36:53.927Z,8.40
2023-04-11T16:42:15.687Z,8.17
2023-04-11T16:47:37.861Z,7.85
2023-04-11T16:52:59.802Z,7.74
2023-04-11T16:58:21.964Z,7.53
2023-04-11T17:03:44.397Z,7.40
2023-04-11T17:09:10.556Z,7.22
2023-04-11T17:14:35.432Z,7.12
2023-04-11T17:19:58.277Z,6.94
2023-04-11T17:25:21.355Z,6.61
2023-04-11T17:30:44.837Z,6.45
2023-04-11T17:36:07.217Z,6.29
2023-04-11T17:41:29.804Z,6.11
2023-04-11T17:46:52.153Z,6.00
2023-04-11T17:52:14.485Z,5.77
2023-04-11T17:57:36.855Z,5.51
2023-04-11T18:02:59.890Z,5.53
2023-04-11T18:08:28.706Z,5.44
2023-04-11T18:13:58.517Z,5.28
2023-04-11T18:19:21.421Z,5.10
2023-04-11T18:24:44.707Z,5.08
2023-04-11T18:30:12.824Z,4.97
2023-04-11T18:35:35.843Z,4.91
2023-04-11T18:41:00.025Z,4.78
2023-04-11T18:46:24.975Z,4.59
2023-04-11T18:51:48.214Z,4.51
2023-04-11T18:57:14.882Z,4.41
2023-04-11T19:02:38.132Z,4.39
2023-04-11T19:08:01.456Z,4.32
2023-04-11T19:13:23.779Z,4.15
2023-04-11T19:18:45.682Z,4.09
2023-04-11T19:24:08.813Z,3.90
2023-04-11T19:29:31.197Z,3.83
2023-04-11T19:34:53.663Z,3.80
2023-04-11T19:40:15.681Z,3.65
2023-04-11T19:45:37.309Z,3.55
2023-04-11T19:51:00.994Z,3.48
2023-04-11T19:56:24.394Z,3.38
2023-04-11T20:01:46.159Z,3.20
2023-04-11T20:07:08.416Z,3.12
2023-04-11T20:12:30.864Z,3.08
2023-04-11T20:17:52.911Z,2.91
2023-04-11T20:23:16.293Z,2.80
2023-04-11T20:28:38.630Z,2.74
2023-04-11T20:34:00.588Z,2.65
2023-04-11T20:39:26.187Z,2.29
2023-04-11T20:44:48.444Z,2.34
2023-04-11T20:50:16.761Z,2.29
2023-04-11T20:55:39.232Z,2.25
2023-04-11T21:01:03.914Z,2.39
2023-04-11T21:06:27.658Z,2.23
2023-04-11T21:11:50.022Z,2.09
2023-04-11T21:17:12.389Z,2.06
2023-04-11T21:22:38.635Z,2.02
2023-04-11T21:28:03.510Z,1.76
2023-04-11T21:33:28.650Z,1.59
2023-04-11T21:38:50.998Z,1.59
2023-04-11T21:44:12.937Z,1.72
2023-04-11T21:49:35.383Z,1.60
2023-04-11T21:54:57.666Z,1.47
2023-04-11T22:00:20.422Z,1.43
2023-04-11T22:05:45.912Z,1.46
2023-04-11T22:11:11.318Z,1.48
2023-04-11T22:16:34.420Z,1.36
2023-04-11T22:21:56.514Z,1.35
2023-04-11T22:27:18.941Z,1.34
2023-04-11T22:32:41.609Z,1.09
2023-04-11T22:38:04.441Z,0.97
2023-04-11T22:43:27.017Z,0.95
2023-04-11T22:48:49.664Z,0.89
2023-04-11T22:54:13.876Z,0.75
2023-04-11T22:59:39.407Z,0.88
2023-04-11T23:05:03.536Z,0.75
2023-04-11T23:10:25.761Z,0.74
2023-04-11T23:15:49.179Z,0.73
2023-04-11T23:21:15.619Z,0.79
2023-04-11T23:26:37.801Z,0.62
2023-04-11T23:32:01.144Z,0.63
2023-04-11T23:37:23.640Z,0.56
2023-04-11T23:42:42.784Z,0.59
2023-04-11T23:48:05.757Z,0.53
2023-04-11T23:53:28.221Z,0.52
2023-04-11T23:58:51.154Z,0.55
